CYQX

Gander International Airport

Gander, Canada
METAR CYQX 152200Z 20012KT 20SM BKN013 BKN250 23/20 A2982 RMK SC7CI1 CI TR SLP098 DENSITY ALT 1600FT
Observed Flight Rules
Aug-15 @ 22:00 UTC (27 minutes ago) Marginal Visual Flight Rules
Wind Visibility Clouds
200° at 12 knots 20 miles
  • Broken at 1,300' AGL
  • Broken at 25,000' AGL
Temperatures Readings
Current 23°C / 73°F
Dewpoint 20°C / 68°F
Humidity 83%
Altimeter 29.82" Hg
Pressure 1009.8 hPa
Elevation 151
METAR CYQX 152200Z 20012KT 20SM BKN013 BKN250 23/20 A2982 RMK SC7CI1 CI TR SLP098 DENSITY ALT 1600FT
Observed Flight Rules
Aug-15 @ 22:00 UTC
(27 minutes ago)
MVFR
Wind Visibility
200° at 12 knots 20 miles
Clouds
  • Broken at 1,300' AGL
  • Broken at 25,000' AGL
Temperature Dewpoint
23°C / 73°F 20°C / 68°F
Humidity Altimeter Pressure
83% 29.82" Hg 1009.8 hPa